Terminal Aerodrome Forecast
Issued by NWS Cleveland, OH

Home | Current Version | Previous Version | Graphics & Text | Print | Product List | Glossary Off
Versions: 1 2 3 4 5 6 7 8 9 10 11 12 13 14 15 16 17 18 19 20 21 22

000
FTUS41 KCLE 191627 AAB
TAFTOL
TAF AMD
KTOL 191627Z 1916/2012 27008KT P6SM SCT025
      TEMPO 1918/1921 BKN025
     FM192100 31008KT P6SM SCT035
     FM200000 23003KT P6SM FEW200
     FM201100 00000KT 5SM BR FEW200=

USA.gov is the U.S. government's official web portal to all federal, state and local government web resources and services.